createdAt,value
2023-10-20T03:31:39.203Z,35.92
2023-10-20T03:34:06.723Z,29.17
2023-10-20T03:36:33.815Z,32.92
2023-10-20T03:39:01.039Z,33.00
2023-10-20T03:41:28.740Z,28.88
2023-10-20T03:43:55.838Z,40.88
2023-10-20T03:46:22.903Z,35.25
2023-10-20T03:48:50.068Z,36.60
2023-10-20T03:51:18.450Z,32.58
2023-10-20T03:53:51.759Z,35.92
2023-10-20T03:56:20.749Z,31.63
2023-10-20T03:58:48.340Z,38.08
2023-10-20T04:01:15.651Z,31.52
2023-10-20T04:03:46.520Z,36.08
2023-10-20T04:08:42.678Z,34.10
2023-10-20T04:11:09.860Z,37.35
2023-10-20T04:13:36.953Z,37.60
2023-10-20T04:16:14.193Z,32.25
2023-10-20T04:18:42.331Z,33.50
2023-10-20T04:21:10.134Z,37.53
2023-10-20T04:23:38.079Z,38.38
2023-10-20T04:26:06.273Z,40.88
2023-10-20T04:28:45.398Z,35.60
2023-10-20T04:31:36.606Z,37.60
2023-10-20T04:34:24.362Z,37.30
2023-10-20T04:37:09.961Z,36.17
2023-10-20T04:39:55.865Z,41.70
2023-10-20T04:42:34.935Z,40.88
2023-10-20T04:45:20.496Z,37.35
2023-10-20T04:48:06.173Z,42.85
2023-10-20T04:50:36.302Z,36.75
2023-10-20T04:53:13.782Z,41.30
2023-10-20T04:56:03.566Z,40.10
2023-10-20T04:58:47.515Z,39.60
2023-10-20T05:01:22.356Z,42.17
2023-10-20T05:03:54.728Z,40.10
2023-10-20T05:06:24.264Z,41.42
2023-10-20T05:08:51.490Z,40.88
2023-10-20T05:11:20.956Z,41.50
2023-10-20T05:13:48.084Z,41.60
2023-10-20T05:16:15.212Z,37.00
2023-10-20T05:18:43.741Z,41.78
2023-10-20T05:21:13.409Z,41.67
2023-10-20T05:23:42.431Z,40.50
2023-10-20T05:26:12.650Z,42.45
2023-10-20T05:28:39.718Z,40.58
2023-10-20T05:31:06.889Z,38.65
2023-10-20T05:33:34.215Z,40.20
2023-10-20T05:36:05.623Z,42.33
2023-10-20T05:38:33.208Z,38.17
2023-10-20T05:41:01.017Z,45.47
2023-10-20T05:43:28.376Z,38.83
2023-10-20T05:45:55.851Z,39.58
2023-10-20T05:48:23.346Z,40.30
2023-10-20T05:50:56.156Z,37.83
2023-10-20T05:53:23.509Z,35.95
2023-10-20T05:55:50.599Z,40.28
2023-10-20T05:58:17.691Z,36.45
2023-10-20T06:01:01.563Z,36.17
2023-10-20T06:03:30.730Z,38.25
2023-10-20T06:06:01.963Z,32.80
2023-10-20T06:08:30.691Z,40.88
2023-10-20T06:11:04.818Z,38.05
2023-10-20T06:13:33.863Z,38.50
2023-10-20T06:16:12.319Z,36.72
2023-10-20T06:18:42.317Z,34.53
2023-10-20T06:21:16.297Z,34.38
2023-10-20T06:23:44.249Z,38.05
2023-10-20T06:26:11.527Z,36.75
2023-10-20T06:28:38.707Z,34.42
2023-10-20T06:31:31.870Z,37.75
2023-10-20T06:34:10.886Z,36.83
2023-10-20T06:36:42.126Z,40.42
2023-10-20T06:39:14.364Z,36.88
2023-10-20T06:41:41.915Z,40.47
2023-10-20T06:44:15.317Z,37.20
2023-10-20T06:46:42.369Z,40.42
2023-10-20T06:49:09.459Z,38.55
2023-10-20T06:51:38.463Z,39.03
2023-10-20T06:54:05.766Z,38.75
2023-10-20T06:56:32.878Z,39.22
2023-10-20T06:58:59.941Z,35.55
2023-10-20T07:01:28.207Z,35.60
2023-10-20T07:03:55.656Z,38.65
2023-10-20T07:06:22.758Z,37.95
2023-10-20T07:08:52.131Z,37.33
2023-10-20T07:11:19.275Z,41.65
2023-10-20T07:13:46.410Z,38.13
2023-10-20T07:16:13.892Z,36.88
2023-10-20T07:18:41.178Z,33.88
2023-10-20T07:21:08.305Z,35.45
2023-10-20T07:23:35.587Z,31.48
2023-10-20T07:26:02.736Z,35.78
2023-10-20T07:28:29.815Z,33.85
2023-10-20T07:30:56.908Z,36.55
2023-10-20T07:33:24.048Z,28.10
2023-10-20T07:35:51.746Z,34.83
2023-10-20T07:38:19.664Z,36.45
2023-10-20T07:40:48.188Z,39.85
2023-10-20T07:43:15.300Z,36.10
2023-10-20T07:45:42.577Z,30.48
2023-10-20T07:48:11.153Z,30.95
2023-10-20T07:50:38.478Z,34.83
2023-10-20T07:53:06.597Z,33.97
2023-10-20T07:55:33.743Z,30.13
2023-10-20T07:58:00.930Z,35.40
2023-10-20T08:00:28.050Z,34.03
2023-10-20T08:02:56.091Z,31.98
2023-10-20T08:05:26.999Z,34.70
2023-10-20T08:07:54.959Z,32.72
2023-10-20T08:10:23.249Z,34.00
2023-10-20T08:12:50.726Z,32.53
2023-10-20T08:15:18.039Z,31.55
2023-10-20T08:17:46.930Z,34.83
2023-10-20T08:20:14.151Z,34.95
2023-10-20T08:22:41.804Z,33.65
2023-10-20T08:25:10.237Z,35.45
2023-10-20T08:27:37.996Z,29.50
2023-10-20T08:30:06.555Z,31.52
2023-10-20T08:32:33.749Z,28.30
2023-10-20T08:35:00.894Z,31.50
2023-10-20T08:37:29.686Z,28.67
2023-10-20T08:39:56.860Z,32.05
2023-10-20T08:42:23.958Z,33.75
2023-10-20T08:44:51.639Z,33.45
2023-10-20T08:47:18.859Z,31.58
2023-10-20T08:49:47.280Z,31.25
2023-10-20T08:52:14.734Z,29.80
2023-10-20T08:54:42.425Z,27.92
2023-10-20T08:57:09.637Z,29.13
2023-10-20T08:59:37.724Z,28.92
2023-10-20T09:02:06.676Z,29.17
2023-10-20T09:04:35.795Z,26.10
2023-10-20T09:07:05.408Z,28.67
2023-10-20T09:09:33.745Z,32.15
2023-10-20T09:12:00.981Z,27.00
2023-10-20T09:14:29.327Z,31.45
2023-10-20T09:16:58.572Z,28.40
2023-10-20T09:19:25.859Z,28.63
2023-10-20T09:21:55.854Z,33.17
2023-10-20T09:24:31.740Z,32.30
2023-10-20T09:26:58.932Z,28.92
2023-10-20T09:29:26.197Z,27.75
2023-10-20T09:31:53.241Z,28.58
2023-10-20T09:34:21.570Z,26.73
2023-10-20T09:36:48.822Z,28.98
2023-10-20T09:39:22.563Z,27.63
2023-10-20T09:41:52.693Z,23.45
2023-10-20T09:44:30.167Z,24.10
2023-10-20T09:47:00.073Z,29.17
2023-10-20T09:49:28.108Z,23.73
2023-10-20T09:51:56.553Z,27.92
2023-10-20T09:54:25.393Z,23.55
2023-10-20T09:56:54.980Z,25.23
2023-10-20T09:59:25.118Z,28.00
2023-10-20T10:01:57.079Z,24.45
2023-10-20T10:04:42.900Z,27.35
2023-10-20T10:07:10.246Z,22.80
2023-10-20T10:09:50.793Z,24.33
2023-10-20T10:12:21.503Z,24.00
2023-10-20T10:17:29.089Z,23.00
2023-10-20T10:19:56.996Z,22.65
2023-10-20T10:22:28.321Z,28.75
2023-10-20T10:24:56.678Z,24.13
2023-10-20T10:27:30.196Z,26.90
2023-10-20T10:30:10.976Z,22.50
2023-10-20T10:32:49.138Z,22.55
2023-10-20T10:35:17.411Z,22.90
2023-10-20T10:37:45.352Z,27.60
2023-10-20T10:40:16.969Z,23.10
2023-10-20T10:42:48.152Z,24.02
2023-10-20T10:45:30.280Z,22.52
2023-10-20T10:48:10.429Z,21.75
2023-10-20T10:50:41.417Z,24.95
2023-10-20T10:53:08.995Z,18.17
2023-10-20T10:55:37.184Z,18.98
2023-10-20T10:58:09.963Z,22.85
2023-10-20T11:00:38.371Z,23.08
2023-10-20T11:03:07.061Z,24.42
2023-10-20T11:05:35.817Z,25.75
2023-10-20T11:08:13.800Z,24.35
2023-10-20T11:10:47.129Z,24.52
2023-10-20T11:13:21.222Z,23.33
2023-10-20T11:15:49.092Z,24.70
2023-10-20T11:18:17.431Z,23.17
2023-10-20T11:20:48.724Z,23.20
2023-10-20T11:23:15.953Z,21.92
2023-10-20T11:25:43.825Z,22.90
2023-10-20T11:28:11.000Z,24.58
2023-10-20T11:30:43.511Z,23.05
2023-10-20T11:33:14.208Z,23.98
2023-10-20T11:35:43.705Z,24.02
2023-10-20T11:38:10.824Z,20.88
2023-10-20T11:40:38.703Z,23.88
2023-10-20T11:43:05.907Z,22.52
2023-10-20T11:45:33.113Z,24.15
2023-10-20T11:48:00.350Z,22.75
2023-10-20T11:50:27.508Z,23.30
2023-10-20T11:52:54.768Z,23.75
2023-10-20T11:55:21.842Z,23.98
2023-10-20T11:57:48.952Z,21.85
2023-10-20T12:00:16.194Z,22.80
2023-10-20T12:02:43.423Z,22.05
2023-10-20T12:05:11.416Z,21.42
2023-10-20T12:07:39.015Z,23.80
2023-10-20T12:10:07.177Z,21.05
2023-10-20T12:12:34.936Z,19.70
2023-10-20T12:15:02.353Z,18.83
2023-10-20T12:17:30.712Z,19.17
2023-10-20T12:19:58.254Z,19.35
2023-10-20T12:22:27.247Z,21.40
2023-10-20T12:24:55.543Z,20.25
2023-10-20T12:27:22.858Z,22.70
2023-10-20T12:29:50.008Z,19.92
2023-10-20T12:32:17.586Z,19.30
2023-10-20T12:34:46.025Z,19.10
2023-10-20T12:37:13.100Z,18.13
2023-10-20T12:39:41.434Z,19.05
2023-10-20T12:42:08.937Z,22.52
2023-10-20T12:44:36.507Z,20.40
2023-10-20T12:47:04.322Z,20.15
2023-10-20T12:49:32.956Z,17.88
2023-10-20T12:52:03.797Z,17.85
2023-10-20T12:57:00.256Z,20.58
2023-10-20T12:59:27.449Z,18.73
2023-10-20T13:01:54.781Z,18.90
2023-10-20T13:04:22.353Z,20.80
2023-10-20T13:06:59.805Z,18.60
2023-10-20T13:09:28.655Z,17.73
2023-10-20T13:11:58.660Z,17.85
2023-10-20T13:14:27.053Z,16.27
2023-10-20T13:16:54.320Z,15.27
2023-10-20T13:19:21.348Z,17.13
2023-10-20T13:21:48.497Z,17.50
2023-10-20T13:24:15.517Z,16.73
2023-10-20T13:26:42.632Z,17.05
2023-10-20T13:29:09.705Z,15.73
2023-10-20T13:31:36.801Z,16.42
2023-10-20T13:34:04.124Z,14.43
2023-10-20T13:36:31.396Z,14.23
2023-10-20T13:38:59.127Z,13.55
2023-10-20T13:41:26.377Z,10.65
2023-10-20T13:43:53.612Z,9.27
2023-10-20T13:46:20.911Z,9.55
2023-10-20T13:48:48.542Z,10.80
2023-10-20T13:51:16.507Z,10.23
2023-10-20T13:53:43.813Z,9.50
2023-10-20T13:56:10.925Z,9.40
2023-10-20T13:58:37.935Z,8.27
2023-10-20T14:01:05.052Z,9.65
2023-10-20T14:03:33.218Z,8.88
2023-10-20T14:06:00.633Z,10.43
2023-10-20T14:08:27.923Z,10.63
2023-10-20T14:10:56.702Z,9.50
2023-10-20T14:13:23.796Z,7.80
2023-10-20T14:15:51.152Z,7.95
2023-10-20T14:18:18.964Z,8.70
2023-10-20T14:20:46.372Z,10.38
2023-10-20T14:23:14.329Z,8.80
2023-10-20T14:25:41.541Z,10.02
2023-10-20T14:28:08.601Z,10.23
2023-10-20T14:30:35.837Z,10.82
2023-10-20T14:33:02.968Z,10.98
2023-10-20T14:35:30.214Z,9.32
2023-10-20T14:37:57.400Z,14.45
2023-10-20T14:40:24.461Z,12.13
2023-10-20T14:42:51.564Z,7.68
2023-10-20T14:45:18.726Z,9.93
2023-10-20T14:47:45.827Z,7.28
2023-10-20T14:50:12.957Z,7.43
2023-10-20T14:52:41.448Z,9.20
2023-10-20T14:55:10.632Z,10.18
2023-10-20T14:57:37.765Z,8.18
2023-10-20T15:00:10.934Z,9.75
2023-10-20T15:02:41.898Z,7.95
2023-10-20T15:07:37.908Z,7.25
2023-10-20T15:10:05.642Z,7.25
2023-10-20T15:12:33.013Z,9.43
2023-10-20T15:15:00.903Z,7.18
2023-10-20T15:17:28.522Z,9.07
2023-10-20T15:19:55.660Z,5.88
2023-10-20T15:22:23.835Z,9.20
2023-10-20T15:24:53.117Z,6.75
2023-10-20T15:27:21.544Z,7.93
2023-10-20T15:29:48.821Z,6.68
2023-10-20T15:32:16.861Z,6.80
2023-10-20T15:34:43.969Z,6.45
2023-10-20T15:37:10.975Z,6.38
2023-10-20T15:39:47.812Z,5.95
2023-10-20T15:42:19.960Z,7.28
2023-10-20T15:44:47.090Z,5.78
2023-10-20T15:47:14.222Z,6.68
2023-10-20T15:49:44.168Z,5.18
2023-10-20T15:52:11.962Z,6.13
2023-10-20T15:54:39.045Z,7.90
2023-10-20T15:57:07.367Z,6.18
2023-10-20T15:59:34.828Z,4.70
2023-10-20T16:02:02.110Z,6.93
2023-10-20T16:04:29.392Z,4.95
2023-10-20T16:06:56.571Z,5.40
2023-10-20T16:09:23.610Z,3.97
2023-10-20T16:11:50.761Z,5.63
2023-10-20T16:14:17.862Z,3.58
2023-10-20T16:16:45.046Z,6.32
2023-10-20T16:19:12.201Z,5.35
2023-10-20T16:21:39.341Z,9.70
2023-10-20T16:24:06.790Z,9.43
2023-10-20T16:26:34.011Z,6.35
2023-10-20T16:29:01.436Z,9.48
2023-10-20T16:31:28.679Z,4.03
2023-10-20T16:33:55.844Z,6.10
2023-10-20T16:36:22.862Z,6.00
2023-10-20T16:38:49.942Z,2.28
2023-10-20T16:41:19.185Z,2.83
2023-10-20T16:43:46.207Z,2.38
2023-10-20T16:46:13.275Z,1.42
2023-10-20T16:48:41.888Z,1.38
2023-10-20T16:51:09.172Z,2.40
2023-10-20T16:53:36.634Z,1.30
2023-10-20T16:56:05.769Z,1.80
2023-10-20T16:58:32.874Z,1.48
2023-10-20T17:01:04.228Z,1.15
2023-10-20T17:03:31.714Z,2.88
2023-10-20T17:05:59.332Z,0.98
2023-10-20T17:08:28.459Z,0.70
2023-10-20T17:10:55.984Z,2.08
2023-10-20T17:13:23.058Z,1.10
2023-10-20T17:15:50.169Z,1.25
2023-10-20T17:18:17.436Z,6.10
2023-10-20T17:20:44.752Z,2.90
2023-10-20T17:23:14.096Z,2.20
2023-10-20T17:25:47.478Z,3.03
2023-10-20T17:28:14.703Z,3.72
2023-10-20T17:30:41.747Z,1.67
2023-10-20T17:33:09.508Z,1.75
2023-10-20T17:35:36.871Z,1.70
2023-10-20T17:38:04.169Z,2.25
2023-10-20T17:40:35.769Z,4.28
2023-10-20T17:43:03.717Z,1.60
2023-10-20T17:45:30.851Z,2.03
2023-10-20T17:47:58.041Z,1.75
2023-10-20T17:50:25.162Z,0.82
2023-10-20T17:52:53.876Z,3.75
2023-10-20T17:55:21.984Z,1.80
2023-10-20T17:57:49.549Z,3.10
2023-10-20T18:00:16.983Z,1.58
2023-10-20T18:02:44.084Z,1.40
2023-10-20T18:05:12.473Z,2.30
2023-10-20T18:07:41.819Z,0.65
2023-10-20T18:10:08.986Z,2.90
2023-10-20T18:12:36.101Z,1.25
2023-10-20T18:15:03.251Z,1.70
2023-10-20T18:17:30.749Z,1.60
2023-10-20T18:19:57.891Z,0.80
2023-10-20T18:22:24.958Z,1.63
2023-10-20T18:24:52.619Z,1.38
2023-10-20T18:27:19.625Z,1.35
2023-10-20T18:29:46.730Z,1.80
2023-10-20T18:32:14.062Z,1.25
2023-10-20T18:34:42.651Z,1.00
2023-10-20T18:37:09.725Z,0.43
2023-10-20T18:39:36.988Z,1.10
2023-10-20T18:42:05.716Z,1.95
2023-10-20T18:44:32.956Z,0.85
2023-10-20T18:47:00.045Z,3.47
2023-10-20T18:49:27.125Z,0.93
2023-10-20T18:51:54.963Z,3.03
2023-10-20T18:54:22.031Z,1.20
2023-10-20T18:56:49.119Z,1.70
2023-10-20T18:59:16.145Z,2.00
2023-10-20T19:01:43.237Z,0.82
2023-10-20T19:04:10.417Z,2.10
2023-10-20T19:06:38.162Z,1.23
2023-10-20T19:09:05.511Z,1.95
2023-10-20T19:11:32.634Z,2.70
2023-10-20T19:13:59.814Z,2.10
2023-10-20T19:16:32.568Z,1.27
2023-10-20T19:18:59.630Z,2.00
2023-10-20T19:21:27.251Z,2.22
2023-10-20T19:23:54.318Z,1.80
2023-10-20T19:26:21.708Z,2.15
2023-10-20T19:28:48.901Z,1.33
2023-10-20T19:31:16.034Z,1.50
2023-10-20T19:33:44.075Z,1.67
2023-10-20T19:36:11.459Z,2.33
2023-10-20T19:38:38.781Z,2.47
2023-10-20T19:41:06.023Z,1.35
2023-10-20T19:43:33.041Z,1.38
2023-10-20T19:46:00.171Z,2.78
2023-10-20T19:48:27.423Z,3.55
2023-10-20T19:50:54.664Z,2.05
2023-10-20T19:53:22.096Z,2.10
2023-10-20T19:55:49.196Z,2.67
2023-10-20T19:58:16.247Z,2.15
2023-10-20T20:00:43.372Z,1.70
2023-10-20T20:03:12.070Z,2.10
2023-10-20T20:05:39.407Z,1.63
2023-10-20T20:08:06.784Z,1.50
2023-10-20T20:10:33.881Z,2.38
2023-10-20T20:13:01.090Z,2.60
2023-10-20T20:15:28.153Z,2.55
2023-10-20T20:17:57.088Z,1.52
2023-10-20T20:20:24.426Z,2.33
2023-10-20T20:22:51.469Z,1.52
2023-10-20T20:25:18.513Z,1.63
2023-10-20T20:27:45.754Z,1.60
2023-10-20T20:30:13.146Z,1.25
2023-10-20T20:32:40.347Z,0.85
2023-10-20T20:35:07.783Z,0.70
2023-10-20T20:37:34.869Z,0.88
2023-10-20T20:40:02.221Z,1.38
2023-10-20T20:42:30.708Z,1.98
2023-10-20T20:44:57.859Z,2.15
2023-10-20T20:47:25.053Z,1.75
2023-10-20T20:49:52.859Z,3.40
2023-10-20T20:52:19.880Z,1.95
2023-10-20T20:54:47.330Z,1.25
2023-10-20T20:57:14.510Z,2.70
2023-10-20T20:59:41.574Z,2.53
2023-10-20T21:02:08.654Z,1.73
2023-10-20T21:04:35.724Z,2.35
2023-10-20T21:07:02.976Z,2.75
2023-10-20T21:09:29.994Z,2.35
2023-10-20T21:11:57.171Z,1.27
2023-10-20T21:14:24.288Z,1.55
2023-10-20T21:16:51.418Z,1.60
2023-10-20T21:19:18.541Z,1.42
2023-10-20T21:21:45.841Z,2.22
2023-10-20T21:24:12.984Z,2.72
2023-10-20T21:26:41.236Z,1.55
2023-10-20T21:29:08.878Z,1.67
2023-10-20T21:31:35.987Z,1.95
2023-10-20T21:34:03.058Z,1.83
2023-10-20T21:36:30.172Z,1.48
2023-10-20T21:38:57.279Z,1.58
2023-10-20T21:41:24.456Z,2.05
2023-10-20T21:43:51.512Z,1.80
2023-10-20T21:46:18.581Z,1.55
2023-10-20T21:48:45.773Z,1.95
2023-10-20T21:51:13.022Z,1.38
2023-10-20T21:53:40.535Z,1.58
2023-10-20T21:56:10.149Z,2.22
2023-10-20T21:58:40.281Z,2.95
